ID Time Temp Humidity Light PM2.5 PM10 Voltage Extra Firmware Position Fcnt TTN version Gateways Distance RSSI LSNR Radiosettings
2026-05-09 07:33:34 9.8125°C 95.75% 3.42V / 3V 287,131,353,126,3527 v255 52.1618 / 5.36429 4569 ttn.v3 - -119 -10.25 868.1MHz, SF9BW125, 4/5CR
2026-05-09 07:18:34 9.5625°C 95.8125% 3.42V / 3V 287,131,351,126,3519 v255 52.1618 / 5.36429 4568 ttn.v3 - -118 -9.25 868.1MHz, SF9BW125, 4/5CR
2026-05-09 07:03:34 9.1875°C 95.875% 3.4V / 3V 287,131,353,126,3536 v255 52.1618 / 5.36429 4567 ttn.v3 - -119 -8.25 868.1MHz, SF9BW125, 4/5CR
2026-05-09 06:48:34 8.875°C 95.875% 3.4V / 3V 287,131,353,126,3281 v255 52.1618 / 5.36429 4566 ttn.v3 0.621km -118 -12 868.1MHz, SF9BW125, 4/5CR
2026-05-09 06:33:41 8.875°C 95.9375% 3.42V / 3V 288,131,353,127,2982 v255 52.1618 / 5.36429 4565 ttn.v3 0.621km -119 -8 868.1MHz, SF9BW125, 4/5CR
1.995km -119 -9.5 868.1MHz, SF9BW125, 4/5CR
2026-05-09 06:18:34 8.75°C 95.9375% 3.42V / 3V 288,131,353,127,2586 v255 52.1618 / 5.36429 4564 ttn.v3 0.621km -117 -9.5 868.1MHz, SF9BW125, 4/5CR
1.995km -119 -14.25 868.1MHz, SF9BW125, 4/5CR
2026-05-09 06:03:34 9.0625°C 96% 3.42V / 3V 288,131,354,127,1970 v255 52.1618 / 5.36429 4563 ttn.v3 0.621km -119 -6.5 868.1MHz, SF9BW125, 4/5CR
- -118 -10 868.1MHz, SF9BW125, 4/5CR
2026-05-09 05:48:34 9.25°C 96.375% 3.42V / 3V 288,131,352,127,897 v255 52.1618 / 5.36429 4562 ttn.v3 1.995km -121 -11.25 868.1MHz, SF9BW125, 4/5CR
2026-05-09 05:33:34 9.3125°C 96.5% 3.42V / 3V 288,131,353,127,149 v255 52.1618 / 5.36429 4561 ttn.v3 0.621km -118 -7.8 868.1MHz, SF9BW125, 4/5CR
1.995km -120 -11.5 868.1MHz, SF9BW125, 4/5CR
2026-05-09 05:18:34 9.4375°C 97.25% 3.42V / 3V 288,131,353,127,70 v255 52.1618 / 5.36429 4560 ttn.v3 1.995km -121 -12 868.1MHz, SF9BW125, 4/5CR
2026-05-09 04:48:51 9.5625°C 97.875% 3.44V / 3V 288,131,353,127,70 v255 52.1618 / 5.36429 4558 ttn.v3 - -119 -10.75 868.1MHz, SF9BW125, 4/5CR
2026-05-09 04:33:48 9.8125°C 99.8125% 3.44V / 3V 288,131,353,127,70 v255 52.1618 / 5.36429 4557 ttn.v3 1.995km -119 -11.25 868.1MHz, SF9BW125, 4/5CR
2026-05-09 04:18:33 10.125°C 107.938% 3.44V / 3V 288,131,353,127,70 v255 52.1618 / 5.36429 4556 ttn.v3 1.995km -114 -11.25 868.1MHz, SF9BW125, 4/5CR
2026-05-09 04:03:33 10.4375°C 115.938% 3.44V / 3V 288,131,354,127,70 v255 52.1618 / 5.36429 4555 ttn.v3 0.621km -116 -9.8 868.1MHz, SF9BW125, 4/5CR
2026-05-09 03:48:50 10.8125°C -0.375% 3.44V / 3V 289,131,353,127,70 v255 52.1618 / 5.36429 4554 ttn.v3 0.621km -115 -11.8 868.1MHz, SF9BW125, 4/5CR
2026-05-09 02:48:51 11.3125°C 38.5625% 3.44V / 3V 289,130,354,127,79 v255 52.1618 / 5.36429 4550 ttn.v3 1.995km -121 -10.5 868.1MHz, SF9BW125, 4/5CR
2026-05-09 02:33:41 11.5625°C 50.875% 3.44V / 3V 288,131,353,127,79 v255 52.1618 / 5.36429 4549 ttn.v3 0.621km -118 -8.8 868.1MHz, SF9BW125, 4/5CR
2026-05-09 02:18:33 11.6875°C 58.125% 3.44V / 3V 288,131,354,127,79 v255 52.1618 / 5.36429 4548 ttn.v3 1.995km -120 -8.75 868.1MHz, SF9BW125, 4/5CR
2026-05-09 02:03:50 11.875°C 64% 3.44V / 3V 289,130,351,127,79 v255 52.1618 / 5.36429 4547 ttn.v3 1.995km -119 -12 868.1MHz, SF9BW125, 4/5CR
2026-05-09 01:33:40 12.375°C 79.3125% 3.44V / 3V 288,131,351,128,79 v255 52.1618 / 5.36429 4545 ttn.v3 1.995km -123 -10.75 868.1MHz, SF9BW125, 4/5CR
2026-05-09 01:18:32 12.625°C 82.5% 3.48V / 3V 288,130,352,127,87 v255 52.1618 / 5.36429 4544 ttn.v3 0.621km -119 -10 868.1MHz, SF9BW125, 4/5CR
1.995km -116 -11.75 868.1MHz, SF9BW125, 4/5CR
2026-05-09 01:03:32 12.8125°C 84.8125% 3.48V / 3V 288,130,352,128,87 v255 52.1618 / 5.36429 4543 ttn.v3 1.995km -120 -12 868.1MHz, SF9BW125, 4/5CR
2026-05-09 00:18:32 13.4375°C 85.8125% 3.48V / 3V 289,131,357,127,87 v255 52.1618 / 5.36429 4540 ttn.v3 - -121 -14.5 868.1MHz, SF9BW125, 4/5CR
2026-05-09 00:03:32 13.625°C 90.375% 3.48V / 3V 287,131,354,127,96 v255 52.1618 / 5.36429 4539 ttn.v3 0.621km -117 -8.5 868.1MHz, SF9BW125, 4/5CR
2026-05-08 23:48:32 13.75°C 91.1875% 3.48V / 3V 287,131,356,128,96 v255 52.1618 / 5.36429 4538 ttn.v3 1.995km -119 -11.25 868.1MHz, SF9BW125, 4/5CR
2026-05-08 23:33:32 14.25°C 90.625% 3.48V / 3V 288,130,354,127,96 v255 52.1618 / 5.36429 4537 ttn.v3 0.621km -118 -7 868.1MHz, SF9BW125, 4/5CR
1.995km -117 -12 868.1MHz, SF9BW125, 4/5CR
2026-05-08 23:18:32 14.4375°C 90.625% 3.48V / 3V 286,130,353,127,96 v255 52.1618 / 5.36429 4536 ttn.v3 0.621km -117 -8.2 868.1MHz, SF9BW125, 4/5CR
2026-05-08 23:03:32 14.75°C 89.8125% 3.48V / 3V 288,130,352,127,96 v255 52.1618 / 5.36429 4535 ttn.v3 0.621km -118 -6.2 868.1MHz, SF9BW125, 4/5CR
1.995km -118 -11.25 868.1MHz, SF9BW125, 4/5CR
2026-05-08 22:48:32 14.4375°C 78% 3.48V / 3V 287,130,353,127,96 v255 52.1618 / 5.36429 4534 ttn.v3 0.621km -114 -10.2 868.1MHz, SF9BW125, 4/5CR
1.995km -120 -10.25 868.1MHz, SF9BW125, 4/5CR
2026-05-08 22:33:41 14.5625°C 83.9375% 3.48V / 3V 286,130,354,127,96 v255 52.1618 / 5.36429 4533 ttn.v3 0.621km -119 -7 868.1MHz, SF9BW125, 4/5CR
1.995km -119 -10 868.1MHz, SF9BW125, 4/5CR
2026-05-08 22:18:32 14.6875°C 85.75% 3.48V / 3V 288,130,353,127,105 v255 52.1618 / 5.36429 4532 ttn.v3 1.995km -120 -12.25 868.1MHz, SF9BW125, 4/5CR
2026-05-08 22:03:32 14.75°C 89% 3.48V / 3V 288,131,353,127,105 v255 52.1618 / 5.36429 4531 ttn.v3 1.995km -121 -10.75 868.1MHz, SF9BW125, 4/5CR
2026-05-08 21:48:39 14.75°C 89.5625% 3.48V / 3V 288,130,355,127,105 v255 52.1618 / 5.36429 4530 ttn.v3 0.621km -118 -7.8 868.1MHz, SF9BW125, 4/5CR
2026-05-08 21:33:32 15°C 87.875% 3.5V / 3V 287,131,355,127,123 v255 52.1618 / 5.36429 4529 ttn.v3 - -122 -11.75 868.1MHz, SF9BW125, 4/5CR
2026-05-08 21:18:31 15.375°C 80.375% 3.48V / 3V 287,130,353,127,158 v255 52.1618 / 5.36429 4528 ttn.v3 - -120 -9.75 868.1MHz, SF9BW125, 4/5CR
1.995km -119 -13 868.1MHz, SF9BW125, 4/5CR
2026-05-08 21:03:39 15.625°C 75.8125% 3.48V / 3V 287,131,353,127,360 v255 52.1618 / 5.36429 4527 ttn.v3 - -119 -10.5 868.1MHz, SF9BW125, 4/5CR
2026-05-08 20:48:31 15.8125°C 72.4375% 3.46V / 3V 286,130,354,127,1249 v255 52.1618 / 5.36429 4526 ttn.v3 - -121 -13 868.1MHz, SF9BW125, 4/5CR
2026-05-08 20:34:34 16.1875°C 71.5625% 3.5V / 3V 287,129,355,127,2049 v255 52.1618 / 5.36429 4525 ttn.v3 0.621km -117 -11 868.1MHz, SF12BW125, 4/5CR
1.995km -117 -12.75 868.1MHz, SF12BW125, 4/5CR
2026-05-08 20:18:31 16.375°C 66.125% 3.5V / 3V 287,130,354,127,2392 v255 52.1618 / 5.3645 4524 ttn.v3 0.619km -118 -12.8 868.1MHz, SF9BW125, 4/5CR
2026-05-08 20:03:31 16.5625°C 64.5% 3.5V / 3V 287,130,354,126,2982 v255 52.1618 / 5.3645 4523 ttn.v3 - -121 -9.25 868.1MHz, SF9BW125, 4/5CR
2026-05-08 19:48:31 16.6875°C 66.0625% 3.5V / 3V 288,130,354,127,3035 v255 52.1618 / 5.3645 4522 ttn.v3 0.619km -118 -5.5 868.1MHz, SF9BW125, 4/5CR
2026-05-08 19:33:31 16.875°C 69.125% 3.5V / 3V 286,130,353,126,3140 v255 52.1618 / 5.3645 4521 ttn.v3 0.619km -117 -7.8 868.1MHz, SF9BW125, 4/5CR
1.982km -120 -11 868.1MHz, SF9BW125, 4/5CR
2026-05-08 19:18:31 16.6875°C 63.9375% 3.5V / 3V 287,129,354,126,3281 v255 52.1618 / 5.3645 4520 ttn.v3 0.619km -111 -14 868.1MHz, SF9BW125, 4/5CR
2026-05-08 19:03:39 16.6875°C 64.25% 3.5V / 3V 287,129,352,126,3439 v255 52.1618 / 5.3645 4519 ttn.v3 1.982km -118 -12.75 868.1MHz, SF9BW125, 4/5CR
2026-05-08 18:48:31 16.8125°C 64.4375% 3.5V / 3V 288,130,353,127,3527 v255 52.1618 / 5.3645 4518 ttn.v3 0.619km -114 -5.8 868.1MHz, SF9BW125, 4/5CR
1.982km -119 -10.75 868.1MHz, SF9BW125, 4/5CR
2026-05-08 18:33:31 16.875°C 62.4375% 3.5V / 3V 286,130,354,126,3545 v255 52.1618 / 5.3645 4517 ttn.v3 1.982km -119 -10.75 868.1MHz, SF9BW125, 4/5CR
- -122 -11.75 868.1MHz, SF9BW125, 4/5CR
2026-05-08 18:18:31 16.6875°C 65% 3.5V / 3V 286,130,353,126,3536 v255 52.1618 / 5.3645 4516 ttn.v3 1.982km -119 -10.25 868.1MHz, SF9BW125, 4/5CR
2026-05-08 17:48:31 17°C 65.25% 3.52V / 3V 286,130,353,126,3554 v255 52.1618 / 5.3645 4514 ttn.v3 0.619km -116 -6.5 868.1MHz, SF9BW125, 4/5CR
2026-05-08 17:33:31 17.0625°C 62.125% 3.52V / 3V 285,130,354,126,3554 v255 52.1618 / 5.3645 4513 ttn.v3 0.619km -117 -6.8 868.1MHz, SF9BW125, 4/5CR
2026-05-08 17:03:39 17.0625°C 63.375% 3.52V / 3V 285,130,354,126,3571 v255 52.1618 / 5.3645 4511 ttn.v3 1.982km -119 -13.5 868.1MHz, SF9BW125, 4/5CR
2026-05-08 16:48:30 17.0625°C 62.625% 3.52V / 3V 286,130,351,125,3580 v255 52.1618 / 5.3645 4510 ttn.v3 0.619km -113 -13.2 868.1MHz, SF9BW125, 4/5CR
2026-05-08 16:18:30 17.25°C 64.0625% 3.52V / 3V 285,129,357,125,3571 v255 52.1618 / 5.3645 4508 ttn.v3 - -121 -14 868.1MHz, SF9BW125, 4/5CR
2026-05-08 15:03:30 17.25°C 62.9375% 3.52V / 3V 286,129,355,125,3571 v255 52.1618 / 5.3645 4503 ttn.v3 0.619km -119 -6.2 868.1MHz, SF9BW125, 4/5CR
2026-05-08 14:48:30 17.4375°C 64.5625% 3.52V / 3V 286,129,354,125,3580 v255 52.1618 / 5.3645 4502 ttn.v3 0.619km -119 -7.5 868.1MHz, SF9BW125, 4/5CR
1.982km -120 -12.25 868.1MHz, SF9BW125, 4/5CR
2026-05-08 14:18:38 16.9375°C 62.625% 3.52V / 3V 288,129,353,125,3598 v255 52.1618 / 5.3645 4500 ttn.v3 - -121 -11.5 868.1MHz, SF9BW125, 4/5CR
2026-05-08 14:03:30 17.4375°C 67.1875% 3.52V / 3V 287,129,355,124,3598 v255 52.1618 / 5.3645 4499 ttn.v3 0.619km -115 -8 868.1MHz, SF9BW125, 4/5CR
- -123 -12 868.1MHz, SF9BW125, 4/5CR
2026-05-08 13:48:30 17.125°C 67.0625% 3.52V / 3V 285,129,355,125,3589 v255 52.1618 / 5.3645 4498 ttn.v3 1.982km -120 -9 868.1MHz, SF9BW125, 4/5CR
2026-05-08 13:33:30 16.6875°C 65.375% 3.54V / 3V 287,129,354,124,3615 v255 52.1618 / 5.3645 4497 ttn.v3 1.982km -118 -12 868.1MHz, SF9BW125, 4/5CR
2026-05-08 12:48:29 16.25°C 101.5% 3.52V / 3V 286,130,356,124,3615 v255 52.1618 / 5.3645 4494 ttn.v3 0.619km -113 -10 868.1MHz, SF9BW125, 4/5CR
2026-05-08 12:18:29 15.9375°C 100.25% 3.52V / 3V 286,129,354,124,3580 v255 52.1618 / 5.3645 4492 ttn.v3 1.982km -117 -8.5 868.1MHz, SF9BW125, 4/5CR
2026-05-08 11:48:29 16.1875°C 100.375% 3.52V / 3V 285,129,355,124,3624 v255 52.1618 / 5.3645 4490 ttn.v3 0.619km -118 -11 868.1MHz, SF9BW125, 4/5CR
1.982km -120 -12 868.1MHz, SF9BW125, 4/5CR
2026-05-08 11:33:29 15.375°C 99.75% 3.52V / 3V 287,129,355,124,3624 v255 52.1618 / 5.3645 4489 ttn.v3 1.982km -117 -10 868.1MHz, SF9BW125, 4/5CR
- -122 -12.75 868.1MHz, SF9BW125, 4/5CR
2026-05-08 11:18:29 14.9375°C 99.1875% 3.52V / 3V 287,129,355,124,3615 v255 52.1618 / 5.3645 4488 ttn.v3 - -120 -11.25 868.1MHz, SF9BW125, 4/5CR
2026-05-08 11:03:29 14.3125°C 98.125% 3.5V / 3V 288,129,357,124,3615 v255 52.1618 / 5.3645 4487 ttn.v3 0.619km -116 -5.8 868.1MHz, SF9BW125, 4/5CR
- -120 -9.75 868.1MHz, SF9BW125, 4/5CR
2026-05-08 10:33:29 13.1875°C 96% 3.5V / 3V 288,129,355,125,3580 v255 52.1618 / 5.3645 4485 ttn.v3 0.619km -115 -10.5 868.1MHz, SF9BW125, 4/5CR
2026-05-08 10:18:29 12.9375°C 96.375% 3.5V / 3V 288,129,355,124,3580 v255 52.1618 / 5.3645 4484 ttn.v3 0.619km -117 -4.8 868.1MHz, SF9BW125, 4/5CR
2026-05-08 10:03:29 12.125°C 96.1875% 3.5V / 3V 287,129,354,124,3580 v255 52.1618 / 5.3645 4483 ttn.v3 0.619km -115 -6.5 868.1MHz, SF9BW125, 4/5CR
2026-05-08 09:48:29 11.9375°C 95.8125% 3.5V / 3V 288,130,355,125,3580 v255 52.1618 / 5.3645 4482 ttn.v3 0.619km -116 -10 868.1MHz, SF9BW125, 4/5CR
1.982km -118 -11.75 868.1MHz, SF9BW125, 4/5CR
2026-05-08 09:33:36 11.5625°C 95.8125% 3.5V / 3V 288,129,356,125,3580 v255 52.1618 / 5.3645 4481 ttn.v3 - -120 -8.5 868.1MHz, SF9BW125, 4/5CR
1.982km -114 -10.75 868.1MHz, SF9BW125, 4/5CR
2026-05-08 09:18:29 10.9375°C 95.625% 3.48V / 3V 288,130,355,125,3563 v255 52.1618 / 5.3645 4480 ttn.v3 0.619km -115 -7.5 868.1MHz, SF9BW125, 4/5CR
- -119 -9.75 868.1MHz, SF9BW125, 4/5CR
2026-05-08 09:03:38 10.5°C 95.625% 3.48V / 3V 288,130,354,125,3563 v255 52.1618 / 5.3645 4479 ttn.v3 1.982km -120 -10.25 868.1MHz, SF9BW125, 4/5CR
- -120 -11.75 868.1MHz, SF9BW125, 4/5CR
2026-05-08 08:33:28 9.8125°C 95.875% 3.48V / 3V 288,129,357,125,3536 v255 52.1618 / 5.3645 4477 ttn.v3 - -122 -15.5 868.1MHz, SF9BW125, 4/5CR
2026-05-08 08:03:36 9.5°C 95.9375% 3.48V / 3V 288,130,355,125,3527 v255 52.1618 / 5.3645 4475 ttn.v3 0.619km -117 -7.8 868.1MHz, SF9BW125, 4/5CR
2026-05-08 07:33:28 9.1875°C 96% 3.48V / 3V 288,130,357,125,3483 v255 52.1618 / 5.3645 4473 ttn.v3 0.619km -117 -6 868.1MHz, SF9BW125, 4/5CR
- -119 -9 868.1MHz, SF9BW125, 4/5CR
1.982km -117 -11.75 868.1MHz, SF9BW125, 4/5CR
2026-05-08 07:18:28 9.0625°C 96.0625% 3.48V / 3V 288,130,356,125,3387 v255 52.1618 / 5.3645 4472 ttn.v3 - -117 -7.5 868.1MHz, SF9BW125, 4/5CR
2026-05-08 07:03:28 9.125°C 96.125% 3.48V / 3V 287,130,355,125,3351 v255 52.1618 / 5.3645 4471 ttn.v3 0.619km -117 -12.2 868.1MHz, SF9BW125, 4/5CR
2026-05-08 06:48:28 9°C 96.125% 3.48V / 3V 288,130,357,125,3140 v255 52.1618 / 5.3645 4470 ttn.v3 - -121 -11.25 868.1MHz, SF9BW125, 4/5CR
2026-05-08 06:33:28 9.125°C 96.0625% 3.48V / 3V 287,130,353,125,2736 v255 52.1618 / 5.3645 4469 ttn.v3 - -118 -6 868.1MHz, SF9BW125, 4/5CR
2026-05-08 06:18:28 9.125°C 96.125% 3.48V / 3V 286,130,355,125,2454 v255 52.1618 / 5.3645 4468 ttn.v3 - -120 -8.5 868.1MHz, SF9BW125, 4/5CR
1.982km -118 -11.5 868.1MHz, SF9BW125, 4/5CR
2026-05-08 05:48:36 9.25°C 96.125% 3.48V / 3V 285,130,355,125,431 v255 52.1618 / 5.3645 4466 ttn.v3 - -118 -7 868.1MHz, SF9BW125, 4/5CR
2026-05-08 05:18:36 9.4375°C 96% 3.48V / 3V 289,130,355,125,70 v255 52.1618 / 5.3645 4464 ttn.v3 - -119 -11 868.1MHz, SF9BW125, 4/5CR
2026-05-08 05:03:27 9.5625°C 96% 3.48V / 3V 289,130,354,125,61 v255 52.1618 / 5.3645 4463 ttn.v3 1.982km -113 -11.5 868.1MHz, SF9BW125, 4/5CR
2026-05-08 04:48:27 9.75°C 96.5625% 3.5V / 3V 287,130,356,125,70 v255 52.1618 / 5.3645 4462 ttn.v3 0.619km -115 -11.2 868.1MHz, SF9BW125, 4/5CR
2026-05-08 04:33:27 9.875°C 98.5625% 3.5V / 3V 287,130,357,125,70 v255 52.1618 / 5.3645 4461 ttn.v3 - -118 -9.5 868.1MHz, SF9BW125, 4/5CR
2026-05-08 04:18:27 10.0625°C 98.25% 3.5V / 3V 288,130,356,125,70 v255 52.1618 / 5.3645 4460 ttn.v3 1.982km -120 -10.5 868.1MHz, SF9BW125, 4/5CR
2026-05-08 04:03:27 10.125°C 97.5% 3.5V / 3V 287,129,355,125,70 v255 52.1618 / 5.3645 4459 ttn.v3 1.982km -117 -10.25 868.1MHz, SF9BW125, 4/5CR
2026-05-08 03:48:27 10.125°C 97.8125% 3.5V / 3V 289,129,355,125,70 v255 52.1618 / 5.3645 4458 ttn.v3 0.619km -118 -6.2 868.1MHz, SF9BW125, 4/5CR
2026-05-08 03:33:27 10.3125°C 102.25% 3.5V / 3V 289,130,356,126,70 v255 52.1618 / 5.3645 4457 ttn.v3 - -120 -9 868.1MHz, SF9BW125, 4/5CR
1.982km -119 -10.75 868.1MHz, SF9BW125, 4/5CR
2026-05-08 03:18:27 10.4375°C 106.188% 3.5V / 3V 288,130,355,126,70 v255 52.1618 / 5.3645 4456 ttn.v3 0.619km -118 -6 868.1MHz, SF9BW125, 4/5CR
2026-05-08 03:03:27 10.375°C 108% 3.5V / 3V 288,130,356,126,70 v255 52.1618 / 5.3645 4455 ttn.v3 0.619km -118 -5.8 868.1MHz, SF9BW125, 4/5CR
1.982km -113 -11.75 868.1MHz, SF9BW125, 4/5CR
2026-05-08 02:33:35 10.6875°C 118.562% 3.5V / 3V 287,130,355,126,70 v255 52.1618 / 5.3645 4453 ttn.v3 0.619km -119 -10.5 868.1MHz, SF9BW125, 4/5CR
1.982km -120 -10.75 868.1MHz, SF9BW125, 4/5CR
2026-05-08 02:18:34 10.8125°C -1.75% 3.5V / 3V 289,130,355,126,70 v255 52.1618 / 5.3645 4452 ttn.v3 1.982km -119 -11.75 868.1MHz, SF9BW125, 4/5CR
2026-05-08 01:48:34 11.0625°C 11.625% 3.5V / 3V 288,130,354,126,70 v255 52.1618 / 5.3645 4450 ttn.v3 1.982km -120 -12 868.1MHz, SF9BW125, 4/5CR
2026-05-08 01:18:26 11.4375°C 25.25% 3.5V / 3V 289,130,355,126,79 v255 52.1618 / 5.3645 4448 ttn.v3 0.619km -119 -11 868.1MHz, SF9BW125, 4/5CR
1.982km -125 -12.5 868.1MHz, SF9BW125, 4/5CR
2026-05-08 01:03:26 11.6875°C 33.625% 3.5V / 3V 288,130,356,126,79 v255 52.1618 / 5.3645 4447 ttn.v3 0.619km -116 -7.5 868.1MHz, SF9BW125, 4/5CR
2026-05-07 23:03:26 12.8125°C 82.4375% 3.52V / 3V 286,130,356,126,87 v255 52.1618 / 5.3645 4439 ttn.v3 1.982km -119 -13 868.1MHz, SF9BW125, 4/5CR
2026-05-07 22:48:26 13°C 87.4375% 3.52V / 3V 289,129,356,126,87 v255 52.1618 / 5.3645 4438 ttn.v3 0.619km -119 -6.5 868.1MHz, SF9BW125, 4/5CR
2026-05-07 22:33:26 13.125°C 90.625% 3.52V / 3V 287,129,355,126,87 v255 52.1618 / 5.3645 4437 ttn.v3 0.619km -118 -8.2 868.1MHz, SF9BW125, 4/5CR
2026-05-07 22:18:26 13.25°C 90.75% 3.52V / 3V 288,129,356,126,87 v255 52.1618 / 5.3645 4436 ttn.v3 0.619km -118 -6.2 868.1MHz, SF9BW125, 4/5CR
1.982km -120 -12.5 868.1MHz, SF9BW125, 4/5CR
2026-05-07 22:03:26 13.5625°C 90.6875% 3.52V / 3V 289,129,356,126,96 v255 52.1618 / 5.3645 4435 ttn.v3 0.619km -117 -4.8 868.1MHz, SF9BW125, 4/5CR
2026-05-07 21:48:25 13.875°C 90.0625% 3.52V / 3V 287,129,356,126,96 v255 52.1618 / 5.3645 4434 ttn.v3 0.619km -118 -4.5 868.1MHz, SF9BW125, 4/5CR
2026-05-07 21:33:25 14.1875°C 87.75% 3.52V / 3V 286,130,355,126,114 v255 52.1618 / 5.3645 4433 ttn.v3 0.619km -119 -5.8 868.1MHz, SF9BW125, 4/5CR
- -120 -10 868.1MHz, SF9BW125, 4/5CR
2026-05-07 21:18:25 14.3125°C 86.6875% 3.52V / 3V 288,130,355,126,184 v255 52.1618 / 5.3645 4432 ttn.v3 - -119 -15.25 868.1MHz, SF9BW125, 4/5CR
2026-05-07 21:03:25 14.5°C 87.3125% 3.52V / 3V 289,129,356,125,659 v255 52.1618 / 5.3645 4431 ttn.v3 0.619km -117 -8.2 868.1MHz, SF9BW125, 4/5CR
2026-05-07 20:34:17 14.75°C 84.4375% 3.54V / 3V 288,129,357,126,1803 v255 52.1618 / 5.3645 4429 ttn.v3 0.619km -117 -9 868.1MHz, SF12BW125, 4/5CR
- -120 -12.25 868.1MHz, SF12BW125, 4/5CR
1.982km -118 -12.75 868.1MHz, SF12BW125, 4/5CR
2026-05-07 20:18:25 14.875°C 82.875% 3.54V / 3V 287,129,357,125,2252 v255 52.1621 / 5.36356 4428 ttn.v3 0.664km -119 -8 868.1MHz, SF9BW125, 4/5CR
2.029km -121 -12 868.1MHz, SF9BW125, 4/5CR
2026-05-07 19:33:25 15.375°C 72.9375% 3.54V / 3V 286,129,357,125,2903 v255 52.1621 / 5.36356 4425 ttn.v3 2.029km -119 -11.75 868.1MHz, SF9BW125, 4/5CR
2026-05-07 19:18:32 15.4375°C 72.75% 3.54V / 3V 288,129,355,125,3140 v255 52.1621 / 5.36356 4424 ttn.v3 - -121 -8.5 868.1MHz, SF9BW125, 4/5CR
2.029km -121 -10.25 868.1MHz, SF9BW125, 4/5CR
2026-05-07 19:03:32 15.375°C 68.0625% 3.54V / 3V 287,129,356,125,3255 v255 52.1621 / 5.36356 4423 ttn.v3 - -120 -9 868.1MHz, SF9BW125, 4/5CR
2026-05-07 18:48:33 15.5°C 72.5625% 3.54V / 3V 285,129,357,125,3255 v255 52.1621 / 5.36356 4422 ttn.v3 - -121 -12 868.1MHz, SF9BW125, 4/5CR
0.664km -115 -14.8 868.1MHz, SF9BW125, 4/5CR
2026-05-07 18:18:25 15.625°C 74.5% 3.54V / 3V 287,129,358,125,3378 v255 52.1621 / 5.36356 4420 ttn.v3 0.664km -115 -11.2 868.1MHz, SF9BW125, 4/5CR
2026-05-07 17:48:24 15.5°C 71.5625% 3.54V / 3V 285,129,355,125,3334 v255 52.1621 / 5.36356 4418 ttn.v3 0.664km -116 -9.5 868.1MHz, SF9BW125, 4/5CR
2.029km -123 -12 868.1MHz, SF9BW125, 4/5CR
- -119 -13.5 868.1MHz, SF9BW125, 4/5CR
2026-05-07 17:18:24 15.6875°C 72.0625% 3.54V / 3V 287,129,358,125,3307 v255 52.1621 / 5.36356 4416 ttn.v3 - -121 -11.25 868.1MHz, SF9BW125, 4/5CR
2026-05-07 17:03:24 15.6875°C 68.5% 3.54V / 3V 286,129,354,125,3175 v255 52.1621 / 5.36356 4415 ttn.v3 - -120 -11.5 868.1MHz, SF9BW125, 4/5CR
2026-05-07 16:48:33 15.75°C 71.125% 3.54V / 3V 287,129,358,125,3061 v255 52.1621 / 5.36356 4414 ttn.v3 - -120 -13 868.1MHz, SF9BW125, 4/5CR
2026-05-07 16:33:24 15.75°C 69.875% 3.54V / 3V 286,129,356,124,3000 v255 52.1621 / 5.36356 4413 ttn.v3 0.664km -118 -7.8 868.1MHz, SF9BW125, 4/5CR
- -120 -11.5 868.1MHz, SF9BW125, 4/5CR
2026-05-07 16:18:32 16.1875°C 69.125% 3.54V / 3V 287,128,357,124,3255 v255 52.1621 / 5.36356 4412 ttn.v3 - -119 -8.5 868.1MHz, SF9BW125, 4/5CR
2026-05-07 15:48:24 16.3125°C 68.4375% 3.56V / 3V 287,128,355,124,3589 v255 52.1621 / 5.36356 4410 ttn.v3 0.664km -116 -6 868.1MHz, SF9BW125, 4/5CR
2026-05-07 15:33:24 16.875°C 68.75% 3.56V / 3V 287,128,356,124,3607 v255 52.1621 / 5.36356 4409 ttn.v3 0.664km -114 -10.2 868.1MHz, SF9BW125, 4/5CR
2026-05-07 15:03:32 17.125°C 63.8125% 3.56V / 3V 286,128,357,124,3607 v255 52.1621 / 5.36356 4407 ttn.v3 0.664km -117 -7.2 868.1MHz, SF9BW125, 4/5CR
2026-05-07 14:48:32 17.3125°C 60.125% 3.56V / 3V 287,128,357,124,3607 v255 52.1621 / 5.36356 4406 ttn.v3 0.664km -117 -8.5 868.1MHz, SF9BW125, 4/5CR
2026-05-07 14:18:33 17.125°C 63.1875% 3.56V / 3V 288,128,357,123,3607 v255 52.1621 / 5.36356 4404 ttn.v3 0.664km -117 -4.8 868.1MHz, SF9BW125, 4/5CR
2026-05-07 14:03:24 18.0625°C 61.3125% 3.56V / 3V 287,128,358,124,3677 v255 52.1621 / 5.36356 4403 ttn.v3 - -120 -13.25 868.1MHz, SF9BW125, 4/5CR
2026-05-07 13:48:24 17.75°C 65% 3.56V / 3V 287,128,356,124,3677 v255 52.1621 / 5.36356 4402 ttn.v3 - -120 -8 868.1MHz, SF9BW125, 4/5CR
2026-05-07 13:33:23 17°C 70.0625% 3.56V / 3V 286,128,357,123,3659 v255 52.1621 / 5.36356 4401 ttn.v3 - -121 -9 868.1MHz, SF9BW125, 4/5CR
2026-05-07 13:18:23 16.25°C 71.75% 3.54V / 3V 286,128,356,123,3624 v255 52.1621 / 5.36356 4400 ttn.v3 0.664km -114 -9.8 868.1MHz, SF9BW125, 4/5CR
2026-05-07 13:03:23 16.3125°C 69.9375% 3.54V / 3V 286,128,357,123,3615 v255 52.1621 / 5.36356 4399 ttn.v3 - -120 -13.25 868.1MHz, SF9BW125, 4/5CR
2026-05-07 12:48:31 16.5°C 69.4375% 3.56V / 3V 287,129,358,123,3615 v255 52.1621 / 5.36356 4398 ttn.v3 0.664km -110 -12.8 868.1MHz, SF9BW125, 4/5CR
2026-05-07 12:33:23 16.6875°C 68.5625% 3.56V / 3V 287,129,358,123,3677 v255 52.1621 / 5.36356 4397 ttn.v3 0.664km -117 -2.2 868.1MHz, SF9BW125, 4/5CR
2026-05-07 12:18:23 16.0625°C 72.875% 3.54V / 3V 286,129,358,123,3598 v255 52.1621 / 5.36356 4396 ttn.v3 0.664km -118 -5 868.1MHz, SF9BW125, 4/5CR
2026-05-07 12:03:23 16.125°C 72.375% 3.54V / 3V 286,129,358,123,3659 v255 52.1621 / 5.36356 4395 ttn.v3 0.664km -117 -3 868.1MHz, SF9BW125, 4/5CR
2026-05-07 11:48:31 15.75°C 101.5% 3.54V / 3V 287,129,357,123,3651 v255 52.1621 / 5.36356 4394 ttn.v3 0.664km -117 -6.2 868.1MHz, SF9BW125, 4/5CR
2026-05-07 11:33:23 15.4375°C 101.625% 3.54V / 3V 287,128,359,123,3642 v255 52.1621 / 5.36356 4393 ttn.v3 0.664km -118 -5 868.1MHz, SF9BW125, 4/5CR
2.029km -116 -15.25 868.1MHz, SF9BW125, 4/5CR
2026-05-07 10:48:29 14.5°C 99.1875% 3.54V / 3V 287,129,359,123,3633 v255 52.1621 / 5.36356 4390 ttn.v3 - -120 -11 868.1MHz, SF9BW125, 4/5CR
2026-05-07 10:33:23 14.0625°C 98.4375% 3.54V / 3V 287,128,358,123,3633 v255 52.1621 / 5.36356 4389 ttn.v3 0.664km -115 -8.5 868.1MHz, SF9BW125, 4/5CR
2026-05-07 10:03:23 13.4375°C 97.8125% 3.52V / 3V 288,129,357,123,3624 v255 52.1621 / 5.36356 4387 ttn.v3 2.029km -120 -13.5 868.1MHz, SF9BW125, 4/5CR
2026-05-07 09:48:23 13.4375°C 98.875% 3.52V / 3V 286,129,359,123,3615 v255 52.1621 / 5.36356 4386 ttn.v3 0.664km -118 -8.5 868.1MHz, SF9BW125, 4/5CR
2026-05-07 09:18:30 12.375°C 97.8125% 3.52V / 3V 287,129,358,123,3615 v255 52.1621 / 5.36356 4384 ttn.v3 0.664km -118 -6.8 868.1MHz, SF9BW125, 4/5CR
- -120 -14 868.1MHz, SF9BW125, 4/5CR
2026-05-07 09:03:22 12.125°C 97.25% 3.52V / 3V 289,129,358,123,3615 v255 52.1621 / 5.36356 4383 ttn.v3 - -120 -9.5 868.1MHz, SF9BW125, 4/5CR
2026-05-07 08:48:31 11.6875°C 97.3125% 3.52V / 3V 288,129,359,123,3615 v255 52.1621 / 5.36356 4382 ttn.v3 - -120 -9.75 868.1MHz, SF9BW125, 4/5CR
2026-05-07 08:33:22 11.0625°C 96.625% 3.52V / 3V 288,129,358,123,3615 v255 52.1621 / 5.36356 4381 ttn.v3 0.664km -118 -5.8 868.1MHz, SF9BW125, 4/5CR
- -120 -9.25 868.1MHz, SF9BW125, 4/5CR
2026-05-07 08:18:22 10.3125°C 96.5625% 3.52V / 3V 288,129,357,123,3615 v255 52.1621 / 5.36356 4380 ttn.v3 0.664km -117 -6 868.1MHz, SF9BW125, 4/5CR
- -122 -11 868.1MHz, SF9BW125, 4/5CR
2.029km -119 -13.5 868.1MHz, SF9BW125, 4/5CR
2026-05-07 08:03:31 9.375°C 95.6875% 3.52V / 3V 288,128,359,123,3624 v255 52.1621 / 5.36356 4379 ttn.v3 0.664km -118 -6.5 868.1MHz, SF9BW125, 4/5CR
2026-05-07 07:48:22 8.8125°C 95.6875% 3.52V / 3V 287,129,358,123,3607 v255 52.1621 / 5.36356 4378 ttn.v3 0.664km -117 -8.2 868.1MHz, SF9BW125, 4/5CR
2026-05-07 07:33:22 8.375°C 95.8125% 3.5V / 3V 288,129,358,123,3571 v255 52.1621 / 5.36356 4377 ttn.v3 0.664km -119 -4.8 868.1MHz, SF9BW125, 4/5CR
2026-05-07 07:03:22 8.0625°C 95.9375% 3.5V / 3V 288,129,359,124,3571 v255 52.1621 / 5.36356 4375 ttn.v3 0.664km -117 -7 868.1MHz, SF9BW125, 4/5CR
2026-05-07 06:18:29 7.9375°C 95.9375% 3.5V / 3V 288,129,358,124,2876 v255 52.1621 / 5.36356 4372 ttn.v3 0.664km -116 -9.8 868.1MHz, SF9BW125, 4/5CR
2026-05-07 06:03:22 7.8125°C 95.9375% 3.52V / 3V 288,129,356,124,1882 v255 52.1621 / 5.36356 4371 ttn.v3 0.664km -116 -9.5 868.1MHz, SF9BW125, 4/5CR
- -122 -13 868.1MHz, SF9BW125, 4/5CR
2026-05-07 05:48:21 7.875°C 95.875% 3.5V / 3V 288,129,360,124,923 v255 52.1621 / 5.36356 4370 ttn.v3 0.664km -116 -8.5 868.1MHz, SF9BW125, 4/5CR
2026-05-07 05:33:29 7.875°C 95.875% 3.52V / 3V 287,130,358,124,96 v255 52.1621 / 5.36356 4369 ttn.v3 0.664km -117 -6 868.1MHz, SF9BW125, 4/5CR
2026-05-07 05:18:29 7.9375°C 95.8125% 3.52V / 3V 287,129,356,124,61 v255 52.1621 / 5.36356 4368 ttn.v3 0.664km -116 -6.8 868.1MHz, SF9BW125, 4/5CR
2.029km -118 -13.5 868.1MHz, SF9BW125, 4/5CR
2026-05-07 04:48:21 8.125°C 95.9375% 3.52V / 3V 288,129,358,124,52 v255 52.1621 / 5.36356 4366 ttn.v3 0.664km -113 -12.8 868.1MHz, SF9BW125, 4/5CR
2026-05-07 04:18:21 8.25°C 96.9375% 3.52V / 3V 285,129,360,124,52 v255 52.1621 / 5.36356 4364 ttn.v3 0.664km -115 -9 868.1MHz, SF9BW125, 4/5CR
2026-05-07 04:03:29 8.5°C 98.8125% 3.52V / 3V 289,130,358,124,61 v255 52.1621 / 5.36356 4363 ttn.v3 0.664km -118 -6.2 868.1MHz, SF9BW125, 4/5CR
2026-05-07 03:33:30 8.5°C 101.438% 3.52V / 3V 288,129,359,125,61 v255 52.1621 / 5.36356 4361 ttn.v3 0.664km -118 -5.5 868.1MHz, SF9BW125, 4/5CR
2026-05-07 03:18:21 8.5°C 100.625% 3.52V / 3V 288,129,358,125,61 v255 52.1621 / 5.36356 4360 ttn.v3 0.664km -115 -8.2 868.1MHz, SF9BW125, 4/5CR
2026-05-07 02:48:21 8.9375°C 108.375% 3.52V / 3V 289,130,358,125,61 v255 52.1621 / 5.36356 4358 ttn.v3 2.029km -117 -12 868.1MHz, SF9BW125, 4/5CR
2026-05-07 02:33:21 8.9375°C 112.5% 3.52V / 3V 289,130,360,125,61 v255 52.1621 / 5.36356 4357 ttn.v3 0.664km -116 -7.2 868.1MHz, SF9BW125, 4/5CR
2026-05-07 02:18:29 9.3125°C 118.5% 3.52V / 3V 288,130,359,125,61 v255 52.1621 / 5.36356 4356 ttn.v3 0.664km -118 -4 868.1MHz, SF9BW125, 4/5CR
2.029km -121 -13 868.1MHz, SF9BW125, 4/5CR
2026-05-07 02:03:27 9.375°C -5.875% 3.52V / 3V 288,130,359,125,61 v255 52.1621 / 5.36356 4355 ttn.v3 2.029km -119 -11 868.1MHz, SF9BW125, 4/5CR
2026-05-07 01:48:20 9.625°C 6% 3.52V / 3V 287,130,358,125,61 v255 52.1621 / 5.36356 4354 ttn.v3 0.664km -119 -5.2 868.1MHz, SF9BW125, 4/5CR
2026-05-07 01:33:20 9.8125°C 13.375% 3.52V / 3V 289,130,358,125,70 v255 52.1621 / 5.36356 4353 ttn.v3 0.664km -118 -4.2 868.1MHz, SF9BW125, 4/5CR
2026-05-07 01:18:20 10.0625°C 28.5625% 3.52V / 3V 289,130,359,125,70 v255 52.1621 / 5.36356 4352 ttn.v3 0.664km -117 -9.8 868.1MHz, SF9BW125, 4/5CR
2.029km -120 -11 868.1MHz, SF9BW125, 4/5CR
2026-05-07 01:03:20 10.25°C 41.5625% 3.52V / 3V 288,129,360,125,70 v255 52.1621 / 5.36356 4351 ttn.v3 0.664km -118 -5.2 868.1MHz, SF9BW125, 4/5CR
2.029km -121 -11.25 868.1MHz, SF9BW125, 4/5CR
2026-05-07 00:48:20 10.4375°C 55.9375% 3.52V / 3V 288,130,360,125,70 v255 52.1621 / 5.36356 4350 ttn.v3 2.029km -118 -12.5 868.1MHz, SF9BW125, 4/5CR
2026-05-07 00:33:20 10.625°C 63% 3.52V / 3V 290,129,360,125,70 v255 52.1621 / 5.36356 4349 ttn.v3 2.029km -117 -11.25 868.1MHz, SF9BW125, 4/5CR
2026-05-07 00:18:28 10.8125°C 61.25% 3.52V / 3V 288,130,359,125,70 v255 52.1621 / 5.36356 4348 ttn.v3 0.664km -117 -5.5 868.1MHz, SF9BW125, 4/5CR
2026-05-07 00:03:20 11°C 64.8125% 3.52V / 3V 288,130,359,125,70 v255 52.1621 / 5.36356 4347 ttn.v3 2.029km -120 -13 868.1MHz, SF9BW125, 4/5CR
2026-05-06 23:48:20 11.0625°C 65.6875% 3.52V / 3V 288,130,360,125,70 v255 52.1621 / 5.36356 4346 ttn.v3 2.029km -117 -14.25 868.1MHz, SF9BW125, 4/5CR
2026-05-06 23:18:28 11.25°C 81.375% 3.54V / 3V 287,129,360,125,70 v255 52.1621 / 5.36356 4344 ttn.v3 0.664km -118 -4 868.1MHz, SF9BW125, 4/5CR
2.029km -118 -11.25 868.1MHz, SF9BW125, 4/5CR
2026-05-06 23:03:27 11.3125°C 76.625% 3.54V / 3V 286,129,359,125,79 v255 52.1621 / 5.36356 4343 ttn.v3 0.664km -116 -5.8 868.1MHz, SF9BW125, 4/5CR
2026-05-06 22:18:20 11.9375°C 62.8125% 3.54V / 3V 288,130,358,125,79 v255 52.1621 / 5.36356 4340 ttn.v3 0.664km -117 -7 868.1MHz, SF9BW125, 4/5CR
2026-05-06 22:03:26 12°C 69% 3.54V / 3V 287,130,358,125,87 v255 52.1621 / 5.36356 4339 ttn.v3 0.664km -119 -5.5 868.1MHz, SF9BW125, 4/5CR
2026-05-06 21:48:19 12.0625°C 77.375% 3.54V / 3V 289,130,359,125,87 v255 52.1621 / 5.36356 4338 ttn.v3 2.029km -119 -13.25 868.1MHz, SF9BW125, 4/5CR
2026-05-06 21:03:19 12.25°C 91.8125% 3.54V / 3V 287,130,359,125,360 v255 52.1621 / 5.36356 4335 ttn.v3 - -119 -15.25 868.1MHz, SF9BW125, 4/5CR
2026-05-06 20:48:28 12.5°C 91.5625% 3.52V / 3V 288,129,359,125,1372 v255 52.1621 / 5.36356 4334 ttn.v3 - -120 -10.75 868.1MHz, SF9BW125, 4/5CR
2026-05-06 20:34:13 12.625°C 91.8125% 3.54V / 3V 287,130,358,125,1970 v255 52.1621 / 5.36356 4333 ttn.v3 - -119 -12 868.1MHz, SF12BW125, 4/5CR
1.582km -120 -15.5 868.1MHz, SF12BW125, 4/5CR
2026-05-06 20:18:19 12.5625°C 90.25% 3.54V / 3V 288,129,360,125,1935 v255 52.1617 / 5.36472 4332 ttn.v3 - -121 -10.5 868.1MHz, SF9BW125, 4/5CR
2026-05-06 19:33:19 12.9375°C 80.5625% 3.54V / 3V 288,130,360,125,2771 v255 52.1617 / 5.36472 4329 ttn.v3 0.605km -117 -5.2 868.1MHz, SF9BW125, 4/5CR
2026-05-06 19:18:19 12.9375°C 76% 3.54V / 3V 288,130,359,125,2920 v255 52.1617 / 5.36472 4328 ttn.v3 0.605km -115 -9.5 868.1MHz, SF9BW125, 4/5CR
2026-05-06 19:03:27 13.0625°C 72.875% 3.54V / 3V 288,130,360,125,3457 v255 52.1617 / 5.36472 4327 ttn.v3 - -120 -14.25 868.1MHz, SF9BW125, 4/5CR
2026-05-06 18:18:18 13.0625°C 76.9375% 3.54V / 3V 287,130,361,125,3580 v255 52.1617 / 5.36472 4324 ttn.v3 1.973km -119 -13 868.1MHz, SF9BW125, 4/5CR
2026-05-06 18:03:18 12.9375°C 76.5625% 3.54V / 3V 288,130,361,125,3598 v255 52.1617 / 5.36472 4323 ttn.v3 1.973km -120 -10.25 868.1MHz, SF9BW125, 4/5CR
2026-05-06 17:48:25 12.8125°C 75.9375% 3.54V / 3V 287,130,360,125,3607 v255 52.1617 / 5.36472 4322 ttn.v3 - -123 -13 868.1MHz, SF9BW125, 4/5CR
2026-05-06 17:18:18 12.875°C 80.5625% 3.56V / 3V 288,130,360,125,3607 v255 52.1617 / 5.36472 4320 ttn.v3 - -120 -10.75 868.1MHz, SF9BW125, 4/5CR
2026-05-06 17:03:18 13°C 77.4375% 3.54V / 3V 289,130,359,125,3598 v255 52.1617 / 5.36472 4319 ttn.v3 - -121 -10.75 868.1MHz, SF9BW125, 4/5CR
1.973km -118 -12.5 868.1MHz, SF9BW125, 4/5CR
2026-05-06 16:48:18 13.125°C 71% 3.56V / 3V 288,130,360,125,3624 v255 52.1617 / 5.36472 4318 ttn.v3 1.973km -120 -11 868.1MHz, SF9BW125, 4/5CR
2026-05-06 16:03:18 13.125°C 69.75% 3.56V / 3V 289,129,361,125,3624 v255 52.1617 / 5.36472 4315 ttn.v3 - -118 -9.75 868.1MHz, SF9BW125, 4/5CR
2026-05-06 15:48:18 13.125°C 69.125% 3.56V / 3V 288,130,360,125,3615 v255 52.1617 / 5.36472 4314 ttn.v3 0.605km -116 -5 868.1MHz, SF9BW125, 4/5CR
2026-05-06 15:18:25 13.0625°C 72.3125% 3.56V / 3V 288,130,360,125,3633 v255 52.1617 / 5.36472 4312 ttn.v3 - -119 -8.75 868.1MHz, SF9BW125, 4/5CR
2026-05-06 15:03:18 12.625°C 73% 3.56V / 3V 287,130,360,125,3624 v255 52.1617 / 5.36472 4311 ttn.v3 0.605km -118 -6 868.1MHz, SF9BW125, 4/5CR
2026-05-06 14:48:18 12.3125°C 74.875% 3.54V / 3V 289,130,361,125,3615 v255 52.1617 / 5.36472 4310 ttn.v3 0.605km -117 -9 868.1MHz, SF9BW125, 4/5CR
2026-05-06 14:33:17 12.8125°C 72.25% 3.56V / 3V 288,130,360,125,3615 v255 52.1617 / 5.36472 4309 ttn.v3 - -122 -10.25 868.1MHz, SF9BW125, 4/5CR
1.973km -119 -12.5 868.1MHz, SF9BW125, 4/5CR
2026-05-06 14:18:17 13.125°C 73.25% 3.56V / 3V 287,130,361,125,3615 v255 52.1617 / 5.36472 4308 ttn.v3 0.605km -115 -5.5 868.1MHz, SF9BW125, 4/5CR
2026-05-06 14:03:25 12.9375°C 71.25% 3.56V / 3V 287,130,361,125,3624 v255 52.1617 / 5.36472 4307 ttn.v3 - -118 -9.75 868.1MHz, SF9BW125, 4/5CR
1.973km -117 -11.5 868.1MHz, SF9BW125, 4/5CR
2026-05-06 13:18:17 12.875°C 68.5% 3.56V / 3V 288,130,361,125,3633 v255 52.1617 / 5.36472 4304 ttn.v3 0.605km -118 -11.8 868.1MHz, SF9BW125, 4/5CR
2026-05-06 13:03:23 13°C 68% 3.56V / 3V 287,129,362,125,3633 v255 52.1617 / 5.36472 4303 ttn.v3 - -116 -9.75 868.1MHz, SF9BW125, 4/5CR
2026-05-06 12:18:17 12.75°C 99.75% 3.56V / 3V 287,130,361,125,3633 v255 52.1617 / 5.36472 4300 ttn.v3 - -118 -10.5 868.1MHz, SF9BW125, 4/5CR
2026-05-06 12:03:17 12.8125°C 97.75% 3.56V / 3V 289,130,361,125,3633 v255 52.1617 / 5.36472 4299 ttn.v3 - -121 -12 868.1MHz, SF9BW125, 4/5CR
2026-05-06 11:48:17 12.8125°C 98.8125% 3.56V / 3V 288,130,360,124,3633 v255 52.1617 / 5.36472 4298 ttn.v3 0.605km -111 -11.2 868.1MHz, SF9BW125, 4/5CR

Message count: 200
Node count: 1

Messages per node

Number of messages in list aboveNodes
200

Statistics per gateway

GatewayNumber of messagesNumber of nodesNodes
1091 (0.605km)
761 (1.973km)
691
11 (1.582km)

Filter by dataset